Weather at Paphos International Airport

Public forecast

Using degrees Celsius for public forecast. Weather courtesy of forecast.io.

Current aviation weather report (METAR) for Paphos International Airport

2024/05/19 20:30 (retrieved 21 minutes ago)

LCPH 192030Z 00000KT CAVOK 22/19 Q1009 NOSIG

Aviation forecast (TAF) for Paphos International Airport

2024/05/19 18:33 (retrieved 2 hours ago)

TAF LCPH 191730Z 1918/2018 32010KT CAVOK BECMG 1918/1920 08004KT BECMG 2008/2012 30013KT